Time;durP1;ratioP1;P1;durP2;ratioP2;P2;SDS_P1;SDS_P2;PMS_P1;PMS_P2;Temp;Humidity;BMP_temperature;BMP_pressure;BME280_temperature;BME280_humidity;BME280_pressure;Samples;Min_cycle;Max_cycle;Signal;HPM_P1;HPM_P2
2024/02/13 00:01:54;;;;;;;4.90;2.50;;;;;;;22.20;37.28;99729.98;102878;1294;61365;-82
2024/02/13 00:04:21;;;;;;;5.60;2.60;;;;;;;22.21;37.28;99731.34;102662;1289;61382;-84
2024/02/13 00:06:47;;;;;;;5.10;2.40;;;;;;;22.21;37.29;99733.79;102738;1291;61463;-82
2024/02/13 00:09:16;;;;;;;6.10;2.60;;;;;;;22.21;37.31;99735.95;102653;1295;61311;-82
2024/02/13 00:11:41;;;;;;;;;;;;;;;22.22;37.36;99733.20;102682;1296;74474;-82
2024/02/13 00:14:10;;;;;;;;;;;;;;;22.20;37.39;99736.33;102874;1291;61552;-82
2024/02/13 00:16:38;;;;;;;;;;;;;;;22.18;37.40;99739.66;102676;1291;62186;-81
2024/02/13 00:19:06;;;;;;;;;;;;;;;22.18;37.34;99742.34;102728;1293;72255;-82
2024/02/13 00:21:37;;;;;;;;;;;;;;;22.19;37.31;99738.92;102837;1293;75756;-81
2024/02/13 00:24:03;;;;;;;;;;;;;;;22.19;37.25;99740.34;102674;1295;61760;-83
2024/02/13 00:26:28;;;;;;;;;;;;;;;22.19;37.40;99738.54;102713;1291;62478;-82
2024/02/13 00:28:54;;;;;;;;;;;;;;;22.19;37.39;99740.61;103226;1291;61360;-81
2024/02/13 00:31:20;;;;;;;;;;;;;;;22.20;37.38;99738.64;102758;1293;62387;-83
2024/02/13 00:33:48;;;;;;;;;;;;;;;22.20;37.21;99738.95;102689;1291;74528;-80
2024/02/13 00:36:15;;;;;;;;;;;;;;;22.21;37.32;99739.27;102712;1297;61879;-81
2024/02/13 00:38:43;;;;;;;;;;;;;;;22.20;37.33;99737.48;102750;1291;61619;-84
2024/02/13 00:41:09;;;;;;;;;;;;;;;22.20;37.21;99734.95;102679;1296;72573;-82
2024/02/13 00:43:35;;;;;;;;;;;;;;;22.22;37.44;99739.69;102704;1295;61523;-81
2024/02/13 00:46:01;;;;;;;;;;;;;;;22.22;37.38;99739.52;102787;1291;61267;-81
2024/02/13 00:48:27;;;;;;;;;;;;;;;22.22;37.27;99740.91;102727;1296;61383;-82
2024/02/13 00:50:53;;;;;;;;;;;;;;;22.22;37.21;99743.06;102665;1295;61397;-82
2024/02/13 00:53:20;;;;;;;;;;;;;;;22.22;37.20;99739.81;102792;1296;62362;-79
2024/02/13 00:55:45;;;;;;;;;;;;;;;22.23;37.21;99736.57;102674;1295;61343;-82
2024/02/13 00:58:11;;;;;;;;;;;;;;;22.23;37.21;99734.05;102689;1298;61408;-83
2024/02/13 01:00:39;;;;;;;;;;;;;;;22.22;37.22;99725.65;102845;1294;61995;-82
2024/02/13 01:03:05;;;;;;;;;;;;;;;22.23;37.30;99728.64;102801;1292;71644;-83
2024/02/13 01:05:31;;;;;;;;;;;;;;;22.23;37.24;99721.29;102723;1295;61427;-80
2024/02/13 01:07:57;;;;;;;;;;;;;;;22.23;37.15;99719.27;103018;1290;62589;-81
2024/02/13 01:10:22;;;;;;;;;;;;;;;22.24;37.15;99717.95;103007;1295;61392;-81
2024/02/13 01:12:48;;;;;;;;;;;;;;;22.24;37.05;99719.22;102722;1295;61469;-81
2024/02/13 01:15:14;;;;;;;;;;;;;;;22.24;37.09;99719.76;102805;1291;62373;-83
2024/02/13 01:17:40;;;;;;;;;;;;;;;22.24;37.16;99720.24;103068;1295;74438;-82
2024/02/13 01:20:09;;;;;;;;;;;;;;;22.24;37.06;99722.23;103001;1293;61417;-81
2024/02/13 01:22:35;;;;;;;;;;;;;;;22.25;37.19;99727.04;103073;1290;61623;-81
2024/02/13 01:25:01;;;;;;;;;;;;;;;22.25;37.10;99730.27;103184;1295;62203;-81
2024/02/13 01:27:27;;;;;;;;;;;;;;;22.25;37.07;99729.84;102704;1304;61372;-82
2024/02/13 01:29:54;;;;;;;;;;;;;;;22.26;37.17;99730.17;103019;1295;61417;-81
2024/02/13 01:32:19;;;;;;;;;;;;;;;22.26;37.09;99730.12;102809;1294;62293;-84
2024/02/13 01:34:45;;;;;;;;;;;;;;;22.26;37.17;99727.98;102689;1298;61732;-82
2024/02/13 01:37:11;;;;;;;;;;;;;;;22.27;37.20;99730.42;103001;1295;61426;-83
2024/02/13 01:39:36;;;;;;;;;;;;;;;22.27;37.07;99733.48;103037;1293;61312;-81
2024/02/13 01:42:02;;;;;;;;;;;;;;;22.27;37.03;99731.13;102955;1294;61390;-80
2024/02/13 01:44:28;;;;;;;;;;;;;;;22.27;37.11;99733.25;102993;1294;61389;-82
2024/02/13 01:46:54;;;;;;;;;;;;;;;22.27;37.02;99732.58;102669;1298;61304;-81
2024/02/13 01:49:19;;;;;;;;;;;;;;;22.28;37.09;99729.60;102716;1295;62575;-81
2024/02/13 01:51:45;;;;;;;;;;;;;;;22.28;36.98;99725.14;103138;1294;61308;-82
2024/02/13 01:54:12;;;;;;;;;;;;;;;22.28;36.93;99725.30;102718;1295;62354;-82
2024/02/13 01:56:38;;;;;;;;;;;;;;;22.28;37.11;99719.05;102960;1294;61334;-83
2024/02/13 01:59:04;;;;;;;;;;;;;;;22.29;37.11;99717.73;102760;1289;61893;-82
2024/02/13 02:01:29;;;;;;;;;;;;;;;22.29;37.04;99718.09;102734;1295;74957;-81
2024/02/13 02:03:58;;;;;;;;;;;;;;;22.29;37.01;99713.20;102775;1294;61404;-81
2024/02/13 02:06:24;;;;;;;;;;;;;;;22.29;37.01;99707.67;102730;1296;61441;-82
2024/02/13 02:08:49;;;;;;;;;;;;;;;22.30;36.93;99702.23;102772;1294;61775;-81
2024/02/13 02:11:15;;;;;;;;;;;;;;;22.29;37.00;99701.90;102783;1295;62673;-81
2024/02/13 02:13:42;;;;;;;;;;;;;;;22.30;36.93;99707.77;102790;1292;61460;-82
2024/02/13 02:16:08;;;;;;;;;;;;;;;22.30;36.99;99710.20;102684;1296;61502;-81
2024/02/13 02:18:33;;;;;;;;;;;;;;;22.31;37.05;99711.29;102727;1295;62319;-80
2024/02/13 02:20:59;;;;;;;;;;;;;;;22.31;36.96;99711.80;102676;1297;61350;-80
2024/02/13 02:23:26;;;;;;;;;;;;;;;22.31;36.95;99709.79;102981;1298;61931;-81
2024/02/13 02:25:52;;;;;;;;;;;;;;;22.31;37.07;99708.20;102707;1290;61367;-82
2024/02/13 02:28:18;;;;;;;;;;;;;;;22.31;37.02;99712.48;102655;1292;61401;-83
2024/02/13 02:30:44;;;;;;;;;;;;;;;22.32;36.95;99708.13;102782;1292;61395;-82
2024/02/13 02:33:13;;;;;;;;;;;;;;;22.32;37.00;99706.14;102868;1295;61388;-81
2024/02/13 02:35:40;;;;;;;;;;;;;;;22.32;36.83;99705.93;102656;1292;61339;-83
2024/02/13 02:38:06;;;;;;;;;;;;;;;22.33;36.95;99709.64;102788;1294;61394;-82
2024/02/13 02:40:32;;;;;;;;;;;;;;;22.33;36.87;99714.09;102924;1290;62227;-81
2024/02/13 02:42:59;;;;;;;;;;;;;;;22.33;36.88;99715.53;102688;1296;61513;-81
2024/02/13 02:45:27;;;;;;;;;;;;;;;22.34;36.82;99717.45;102747;1297;61312;-81
2024/02/13 02:47:52;;;;;;;;;;;;;;;22.33;36.87;99717.83;102704;1291;61770;-83
2024/02/13 02:50:18;;;;;;;;;;;;;;;22.34;36.88;99718.67;103325;1292;61393;-81
2024/02/13 02:52:44;;;;;;;;;;;;;;;22.34;36.92;99719.00;102715;1304;62477;-82
2024/02/13 02:55:10;;;;;;;;;;;;;;;22.34;36.86;99718.30;102806;1291;61998;-82
2024/02/13 02:57:36;;;;;;;;;;;;;;;22.35;36.89;99720.77;102720;1297;61291;-82
2024/02/13 03:00:03;;;;;;;;;;;;;;;22.35;36.95;99722.75;102775;1291;61427;-81
2024/02/13 03:02:29;;;;;;;;;;;;;;;22.35;36.87;99725.60;102727;1291;72528;-81
2024/02/13 03:04:55;;;;;;;;;;;;;;;22.35;36.81;99724.16;102718;1296;74207;-82
2024/02/13 03:07:21;;;;;;;;;;;;;;;22.36;36.76;99726.27;102888;1294;61429;-83
2024/02/13 03:09:48;;;;;;;;;;;;;;;22.36;36.88;99728.91;103188;1293;61299;-81
2024/02/13 03:12:13;;;;;;;;;;;;;;;22.36;36.83;99731.44;102781;1296;61399;-81
2024/02/13 03:14:39;;;;;;;;;;;;;;;22.36;36.81;99733.73;102620;1289;61393;-83
2024/02/13 03:17:06;;;;;;;;;;;;;;;22.37;36.78;99738.70;102681;1295;61343;-80
2024/02/13 03:19:32;;;;;;;;;;;;;;;22.36;36.81;99738.73;102817;1294;62319;-82
2024/02/13 03:21:58;;;;;;;;;;;;;;;22.36;36.60;99738.20;102710;1290;61475;-83
2024/02/13 03:24:24;;;;;;;;;;;;;;;22.37;36.70;99741.20;102896;1294;62032;-83
2024/02/13 03:26:49;;;;;;;;;;;;;;;22.37;36.73;99742.04;102774;1296;61302;-82
2024/02/13 03:29:15;;;;;;;;;;;;;;;22.37;36.65;99743.48;102870;1294;61565;-81
2024/02/13 03:31:40;;;;;;;;;;;;;;;22.38;36.65;99749.01;102764;1289;61467;-80
2024/02/13 03:34:06;;;;;;;;;;;;;;;22.38;36.68;99750.27;102901;1289;61398;-81
2024/02/13 03:36:31;;;;;;;;;;;;;;;22.38;36.69;99754.16;102660;1300;61455;-81
2024/02/13 03:38:59;;;;;;;;;;;;;;;22.38;36.55;99759.56;102897;1292;61395;-81
2024/02/13 03:41:25;;;;;;;;;;;;;;;22.38;36.63;99759.74;103374;1290;61288;-80
2024/02/13 03:43:50;;;;;;;;;;;;;;;22.39;36.61;99762.01;102716;1297;61420;-81
2024/02/13 03:46:16;;;;;;;;;;;;;;;22.39;36.47;99761.80;102706;1295;62432;-82
2024/02/13 03:48:42;;;;;;;;;;;;;;;22.39;36.72;99762.31;102640;1292;61394;-83
2024/02/13 03:51:08;;;;;;;;;;;;;;;22.40;36.57;99762.80;102885;1290;61401;-83
2024/02/13 03:53:35;;;;;;;;;;;;;;;22.39;36.63;99763.52;102796;1297;61398;-80
2024/02/13 03:56:03;;;;;;;;;;;;;;;22.40;36.57;99765.31;102719;1290;62566;-82
2024/02/13 03:58:29;;;;;;;;;;;;;;;22.40;36.52;99767.23;102670;1297;72480;-83
2024/02/13 04:00:55;;;;;;;;;;;;;;;22.40;36.53;99766.48;102797;1295;62263;-81
2024/02/13 04:03:21;;;;;;;;;;;;;;;22.40;36.60;99765.42;102699;1294;62250;-81
2024/02/13 04:05:49;;;;;;;;;;;;;;;22.40;36.71;99766.86;102698;1295;61302;-83
2024/02/13 04:08:15;;;;;;;;;;;;;;;22.41;36.54;99767.68;102849;1290;61755;-80
2024/02/13 04:10:40;;;;;;;;;;;;;;;22.41;36.41;99767.83;102314;1294;728609;-82
2024/02/13 04:13:06;;;;;;;;;;;;;;;22.41;36.45;99768.77;102888;1293;62196;-81
2024/02/13 04:15:37;;;;;;;;;;;;;;;22.41;36.49;99770.52;102844;1297;61417;-83
2024/02/13 04:18:03;;;;;;;;;;;;;;;22.41;36.47;99774.27;102684;1290;72404;-81
2024/02/13 04:20:29;;;;;;;;;;;;;;;22.41;36.50;99779.66;102721;1296;61391;-81
2024/02/13 04:22:55;;;;;;;;;;;;;;;22.42;36.48;99778.73;102584;1297;61352;-82
2024/02/13 04:25:21;;;;;;;;;;;;;;;22.42;36.52;99784.10;102678;1294;61417;-82
2024/02/13 04:27:46;;;;;;;;;;;;;;;22.42;36.42;99777.29;103014;1295;61784;-79
2024/02/13 04:30:12;;;;;;;;;;;;;;;22.42;36.39;99778.52;102619;1297;61406;-82
2024/02/13 04:32:38;;;;;;;;;;;;;;;22.43;36.42;99780.09;102644;1297;61580;-81
2024/02/13 04:35:05;;;;;;;;;;;;;;;22.43;36.47;99783.45;102626;1297;61433;-83
2024/02/13 04:37:31;;;;;;;;;;;;;;;22.43;36.44;99787.23;103077;1297;61324;-82
2024/02/13 04:39:57;;;;;;;;;;;;;;;22.44;36.45;99790.38;102636;1294;61494;-81
2024/02/13 04:42:35;;;;;;;;;;;;;;;22.44;36.53;99790.39;102728;1294;61576;-80
2024/02/13 04:45:00;;;;;;;;;;;;;;;22.44;36.42;99791.06;102980;1293;63105;-82
2024/02/13 04:47:29;;;;;;;;;;;;;;;22.44;36.37;99789.12;102744;1294;61499;-81
2024/02/13 04:49:58;;;;;;;;;;;;;;;22.44;36.41;99792.31;102798;1293;72636;-80
2024/02/13 04:52:24;;;;;;;;;;;;;;;22.45;36.27;99793.90;102783;1289;76614;-80
2024/02/13 04:54:50;;;;;;;;;;;;;;;22.45;36.31;99796.05;103175;1290;61784;-79
2024/02/13 04:57:16;;;;;;;;;;;;;;;22.46;36.23;99799.55;103190;1291;62662;-80
2024/02/13 04:59:47;;;;;;;;;;;;;;;22.46;36.17;99802.41;102789;1291;61942;-82
2024/02/13 05:02:14;;;;;;;;;;;;;;;22.46;36.41;99806.86;102942;1290;74253;-81
2024/02/13 05:07:25;;;;;;;;;;;;;;;22.48;36.23;99808.86;103458;1290;61388;-78
2024/02/13 05:09:52;;;;;;;;;;;;;;;22.48;36.20;99808.81;103642;1289;72484;-80
2024/02/13 05:12:17;;;;;;;;;;;;;;;22.49;36.19;99811.25;103325;1290;75599;-80
2024/02/13 05:14:43;;;;;;;;;;;;;;;22.50;36.13;99813.88;103267;1289;61489;-80
2024/02/13 05:17:08;;;;;;;;;;;;;;;22.50;36.20;99816.91;103103;1289;61411;-81
2024/02/13 05:19:34;;;;;;;;;;;;;;;22.50;36.14;99816.16;103142;1294;61376;-79
2024/02/13 05:21:59;;;;;;;;;;;;;;;22.50;36.12;99813.77;103061;1294;61432;-80
2024/02/13 05:24:26;;;;;;;;;;;;;;;22.51;36.04;99815.37;103284;1289;74564;-78
2024/02/13 05:26:52;;;;;;;;;;;;;;;22.51;36.12;99817.55;103107;1291;61805;-82
2024/02/13 05:29:17;;;;;;;;;;;;;;;22.49;36.16;99812.46;102903;1294;61465;-78
2024/02/13 05:31:44;;;;;;;;;;;;;;;22.48;36.06;99811.92;103292;1293;61420;-81
2024/02/13 05:34:10;;;;;;;;;;;;;;;22.47;36.03;99811.81;103403;1289;61452;-79
2024/02/13 05:36:36;;;;;;;;;;;;;;;22.43;35.90;99807.83;103594;1294;61801;-80
2024/02/13 05:39:04;;;;;;;;;;;;;;;22.39;35.96;99804.80;103418;1290;61397;-79
2024/02/13 05:41:31;;;;;;;;;;;;;;;22.34;35.94;99803.81;103554;1291;72645;-80
2024/02/13 05:43:57;;;;;;;;;;;;;;;22.30;35.85;99813.89;103411;1294;61422;-81
2024/02/13 05:46:24;;;;;;;;;;;;;;;22.26;35.79;99817.81;103613;1294;61399;-80
2024/02/13 05:48:53;;;;;;;;;;;;;;;22.20;35.68;99819.61;103413;1291;61420;-80
2024/02/13 05:51:18;;;;;;;;;;;;;;;22.14;35.64;99818.71;103475;1290;72487;-81
2024/02/13 05:53:44;;;;;;;;;;;;;;;22.08;35.77;99814.94;103538;1291;61390;-80
2024/02/13 05:56:12;;;;;;;;;;;;;;;22.01;35.62;99820.75;104011;1294;61449;-82
2024/02/13 05:58:38;;;;;;;;;;;;;;;21.93;35.54;99823.45;103731;1293;61388;-79
2024/02/13 06:01:03;;;;;;;;;;;;;;;21.86;35.57;99824.14;104234;1294;61343;-81
2024/02/13 06:03:32;;;;;;;;;;;;;;;21.81;35.53;99825.06;104622;1292;61376;-82
2024/02/13 06:05:58;;;;;;;;;;;;;;;21.81;35.37;99829.19;104663;1291;61272;-82
2024/02/13 06:08:24;;;;;;;;;;;;;;;21.81;35.49;99834.92;104188;1289;61306;-79
2024/02/13 06:10:50;;;;;;;;;;;;;;;21.80;35.54;99829.33;103524;1289;61990;-81
2024/02/13 06:13:16;;;;;;;;;;;;;;;21.79;35.48;99828.14;103750;1290;59962;-79
2024/02/13 06:15:44;;;;;;;;;;;;;;;21.78;35.41;99826.23;104023;1291;61490;-79
2024/02/13 06:18:10;;;;;;;;;;;;;;;21.78;35.50;99825.88;103875;1293;61299;-79
2024/02/13 06:20:35;;;;;;;;;;;;;;;21.79;35.38;99820.24;103826;1292;61405;-79
2024/02/13 06:23:01;;;;;;;;;;;;;;;21.82;35.44;99824.83;103607;1295;61389;-80
2024/02/13 06:25:26;;;;;;;;;;;;;;;21.85;35.18;99829.56;103878;1290;60313;-79
2024/02/13 06:27:52;;;;;;;;;;;;;;;21.89;35.22;99832.81;103722;1291;61532;-79
2024/02/13 06:30:18;;;;;;;;;;;;;;;21.92;35.34;99831.47;103465;1291;62583;-79
2024/02/13 06:32:44;;;;;;;;;;;;;;;21.95;35.15;99833.14;103810;1292;61328;-78
2024/02/13 06:35:10;;;;;;;;;;;;;;;21.98;35.16;99833.23;103400;1290;62320;-79
2024/02/13 06:37:39;;;;;;;;;;;;;;;22.01;35.19;99840.13;103503;1289;61376;-79
2024/02/13 06:40:06;;;;;;;;;;;;;;;22.03;35.22;99842.80;103566;1294;61421;-79
2024/02/13 06:42:31;;;;;;;;;;;;;;;22.07;35.65;99847.33;103544;1291;73089;-78
2024/02/13 06:44:57;;;;;;;;;;;;;;;22.09;35.44;99846.25;103727;1289;61400;-78
2024/02/13 06:47:25;;;;;;;;;;;;;;;22.11;35.38;99848.52;103952;1290;61302;-78
2024/02/13 06:49:51;;;;;;;;;;;;;;;22.13;35.62;99850.48;103502;1290;62360;-79
2024/02/13 06:52:17;;;;;;;;;;;;;;;22.16;35.45;99852.90;103961;1292;61346;-78
2024/02/13 06:54:45;;;;;;;;;;;;;;;22.18;35.43;99850.80;104015;1290;61411;-78
2024/02/13 06:57:10;;;;;;;;;;;;;;;22.19;35.55;99857.01;104012;1290;61315;-78
2024/02/13 06:59:36;;;;;;;;;;;;;;;22.18;35.51;99854.73;104111;1291;61557;-79
2024/02/13 07:02:01;;;;;;;;;;;;;;;22.17;35.72;99857.13;104312;1292;61411;-80
2024/02/13 07:04:27;;;;;;;;;;;;;;;22.16;35.61;99860.87;104044;1292;62723;-81
2024/02/13 07:06:55;;;;;;;;;;;;;;;22.12;35.61;99858.30;104340;1291;61295;-79
2024/02/13 07:09:22;;;;;;;;;;;;;;;22.09;35.54;99858.80;104029;1290;61292;-78
2024/02/13 07:11:48;;;;;;;;;;;;;;;22.06;35.72;99858.64;103982;1290;61373;-79
2024/02/13 07:14:14;;;;;;;;;;;;;;;22.05;35.61;99858.38;104089;1290;59782;-79
2024/02/13 07:16:39;;;;;;;;;;;;;;;22.05;35.55;99859.30;104116;1294;61298;-79
2024/02/13 07:19:06;;;;;;;;;;;;;;;22.06;35.49;99859.52;103885;1291;61407;-79
2024/02/13 07:21:33;;;;;;;;;;;;;;;22.08;35.41;99860.25;103834;1289;61392;-80
2024/02/13 07:23:59;;;;;;;;;;;;;;;22.11;35.56;99857.52;104048;1291;61230;-80
2024/02/13 07:26:24;;;;;;;;;;;;;;;22.14;35.52;99861.77;104074;1291;61732;-79
2024/02/13 07:28:51;;;;;;;;;;;;;;;22.16;35.63;99859.52;104331;1291;61361;-80
2024/02/13 07:31:19;;;;;;;;;;;;;;;22.19;35.64;99858.05;104349;1289;61159;-79
2024/02/13 07:33:48;;;;;;;;;;;;;;;22.22;35.56;99858.11;104237;1291;61579;-79
2024/02/13 07:36:13;;;;;;;;;;;;;;;22.24;35.61;99857.96;103752;1290;74377;-80
2024/02/13 07:38:39;;;;;;;;;;;;;;;22.26;35.62;99858.65;104046;1290;61317;-80
2024/02/13 07:41:06;;;;;;;;;;;;;;;22.28;35.72;99857.92;103968;1289;61267;-81
2024/02/13 07:43:32;;;;;;;;;;;;;;;22.30;35.69;99856.50;103947;1289;61211;-79
2024/02/13 07:45:58;;;;;;;;;;;;;;;22.32;35.63;99855.86;103730;1289;61419;-81
2024/02/13 07:48:23;;;;;;;;;;;;;;;22.33;35.58;99853.58;103889;1290;61454;-81
2024/02/13 07:50:49;;;;;;;;;;;;;;;22.34;35.64;99858.27;104256;1289;61354;-80
2024/02/13 07:53:15;;;;;;;;;;;;;;;22.36;35.67;99857.62;104213;1291;61337;-81
2024/02/13 07:55:40;;;;;;;;;;;;;;;22.37;35.64;99861.27;104662;1291;72607;-80
2024/02/13 07:58:06;;;;;;;;;;;;;;;22.38;35.88;99861.17;104669;1291;61381;-80
2024/02/13 08:00:33;;;;;;;;;;;;;;;22.39;35.92;99864.70;104317;1289;61283;-82
2024/02/13 08:02:59;;;;;;;;;;;;;;;22.40;36.05;99868.48;104510;1292;59117;-80
2024/02/13 08:05:25;;;;;;;;;;;;;;;22.42;36.11;99869.73;104355;1291;61298;-83
2024/02/13 08:07:51;;;;;;;;;;;;;;;22.44;35.99;99874.80;104062;1289;61412;-80
2024/02/13 08:10:16;;;;;;;;;;;;;;;22.45;36.01;99878.65;104254;1290;61349;-79
2024/02/13 08:12:42;;;;;;;;;;;;;;;22.47;36.08;99881.56;104287;1289;61415;-80
2024/02/13 08:15:09;;;;;;;;;;;;;;;22.48;35.92;99885.58;103998;1289;61685;-80
2024/02/13 08:17:34;;;;;;;;;;;;;;;22.49;35.99;99883.17;104260;1290;61213;-81
2024/02/13 08:20:03;;;;;;;;;;;;;;;22.49;35.91;99882.25;104215;1290;61356;-80
2024/02/13 08:22:29;;;;;;;;;;;;;;;22.49;35.88;99880.48;103930;1290;61206;-80
2024/02/13 08:24:55;;;;;;;;;;;;;;;22.50;35.87;99880.17;104039;1290;59394;-81
2024/02/13 08:27:20;;;;;;;;;;;;;;;22.51;35.81;99881.37;104208;1289;59219;-80
2024/02/13 08:29:46;;;;;;;;;;;;;;;22.52;35.95;99884.69;104338;1289;61085;-79
2024/02/13 08:32:12;;;;;;;;;;;;;;;22.54;35.88;99882.86;104209;1291;59404;-79
2024/02/13 08:34:38;;;;;;;;;;;;;;;22.55;35.90;99886.38;104418;1291;61330;-81
2024/02/13 08:37:04;;;;;;;;;;;;;;;22.56;35.91;99880.17;104528;1293;61232;-79
2024/02/13 08:39:30;;;;;;;;;;;;;;;22.57;35.94;99881.14;104199;1289;61411;-80
2024/02/13 08:41:58;;;;;;;;;;;;;;;22.56;36.02;99883.35;104529;1290;61413;-80
2024/02/13 08:44:24;;;;;;;;;;;;;;;22.57;36.02;99882.95;104810;1289;59515;-81
2024/02/13 08:46:49;;;;;;;;;;;;;;;22.57;36.12;99880.38;104437;1290;61408;-79
2024/02/13 08:49:15;;;;;;;;;;;;;;;22.58;35.95;99875.69;104401;1291;62721;-79
2024/02/13 08:51:40;;;;;;;;;;;;;;;22.59;35.98;99874.83;104537;1291;61299;-81
2024/02/13 08:54:11;;;;;;;;;;;;;;;22.61;36.07;99871.79;104327;1292;61425;-81
2024/02/13 08:56:40;;;;;;;;;;;;;;;22.62;35.93;99871.58;104531;1289;61363;-80
2024/02/13 08:59:10;;;;;;;;;;;;;;;22.61;36.04;99868.56;104121;1291;61261;-82
2024/02/13 09:01:36;;;;;;;;;;;;;;;22.62;36.18;99871.77;104456;1289;73668;-80
2024/02/13 09:04:01;;;;;;;;;;;;;;;22.63;36.20;99878.12;103850;1290;61388;-79
2024/02/13 09:06:27;;;;;;;;;;;;;;;22.63;36.31;99881.14;104135;1289;61469;-80
2024/02/13 09:08:54;;;;;;;;;;;;;;;22.64;36.27;99886.41;103847;1289;61365;-79
2024/02/13 09:11:19;;;;;;;;;;;;;;;22.66;36.41;99885.59;103862;1291;62723;-79
2024/02/13 09:13:46;;;;;;;;;;;;;;;22.67;36.33;99887.96;104032;1290;61376;-80
2024/02/13 09:16:11;;;;;;;;;;;;;;;22.68;36.36;99886.99;104136;1291;60668;-81
2024/02/13 09:18:38;;;;;;;;;;;;;;;22.68;36.49;99888.05;104533;1291;61388;-79
2024/02/13 09:21:06;;;;;;;;;;;;;;;22.68;36.36;99887.48;104077;1290;61230;-80
2024/02/13 09:23:33;;;;;;;;;;;;;;;22.69;36.37;99885.48;104339;1291;72530;-79
2024/02/13 09:25:59;;;;;;;;;;;;;;;22.69;36.40;99885.02;104400;1290;74458;-80
2024/02/13 09:28:25;;;;;;;;;;;;;;;22.70;36.41;99884.92;105919;1290;61331;-80
2024/02/13 09:30:50;;;;;;;;;;;;;;;22.71;36.38;99878.23;104133;1291;61427;-81
2024/02/13 09:33:18;;;;;;;;;;;;;;;22.72;36.33;99882.77;104051;1293;61281;-79
2024/02/13 09:35:44;;;;;;;;;;;;;;;22.73;36.36;99882.36;104033;1294;61395;-80
2024/02/13 09:38:09;;;;;;;;;;;;;;;22.73;36.34;99880.89;104035;1290;61494;-80
2024/02/13 09:40:36;;;;;;;;;;;;;;;22.74;36.20;99878.73;104322;1290;61415;-81
2024/02/13 09:43:01;;;;;;;;;;;;;;;22.74;36.27;99880.27;106174;1289;59123;-81
2024/02/13 09:45:27;;;;;;;;;;;;;;;22.74;36.22;99879.00;105176;1292;63681;-79
2024/02/13 09:47:53;;;;;;;;;;;;;;;22.74;36.18;99882.63;104314;1290;61277;-79
2024/02/13 09:50:18;;;;;;;;;;;;;;;22.72;36.28;99880.27;103770;1290;61333;-82
2024/02/13 09:52:48;;;;;;;;;;;;;;;22.70;36.24;99879.80;104860;1290;61272;-79
2024/02/13 09:55:18;;;;;;;;;;;;;;;22.65;36.32;99877.91;104357;1289;72461;-79
2024/02/13 09:57:45;;;;;;;;;;;;;;;22.58;36.50;99877.66;104858;1291;75471;-81
2024/02/13 10:00:15;;;;;;;;;;;;;;;22.56;36.58;99875.48;104478;1290;61316;-81
2024/02/13 10:02:41;;;;;;;;;;;;;;;22.55;36.76;99870.75;104600;1290;60447;-79
2024/02/13 10:05:09;;;;;;;;;;;;;;;22.53;36.87;99869.51;104430;1294;61451;-80
2024/02/13 10:07:37;;;;;;;;;;;;;;;22.50;36.75;99866.87;104369;1291;74506;-80
2024/02/13 10:10:10;;;;;;;;;;;;;;;22.50;36.96;99867.80;104860;1289;61176;-81
2024/02/13 10:12:39;;;;;;;;;;;;;;;22.50;36.82;99862.66;105027;1291;61533;-78
2024/02/13 10:15:08;;;;;;;;;;;;;;;22.48;36.82;99861.70;104944;1288;72444;-79
2024/02/13 10:17:34;;;;;;;;;;;;;;;22.48;36.70;99858.10;105169;1288;75533;-81
2024/02/13 10:20:01;;;;;;;;;;;;;;;22.48;36.67;99854.19;105108;1288;61878;-81
2024/02/13 10:22:26;;;;;;;;;;;;;;;22.45;36.71;99855.37;105160;1288;61393;-82
2024/02/13 10:25:01;;;;;;;;;;;;;;;22.46;36.68;99847.94;104956;1294;61259;-82
2024/02/13 10:27:27;;;;;;;;;;;;;;;22.48;36.75;99847.88;105131;1288;76826;-79
2024/02/13 10:29:53;;;;;;;;;;;;;;;22.50;36.83;99848.04;105167;1291;59711;-81
2024/02/13 10:32:18;;;;;;;;;;;;;;;22.51;36.73;99846.77;105187;1288;61250;-81
2024/02/13 10:34:50;;;;;;;;;;;;;;;22.52;36.80;99850.80;105464;1288;74722;-83
2024/02/13 10:37:16;;;;;;;;;;;;;;;22.53;36.75;99853.52;105261;1289;60162;-80
2024/02/13 10:39:41;;;;;;;;;;;;;;;22.52;36.66;99851.30;104904;1288;59800;-80
2024/02/13 10:42:08;;;;;;;;;;;;;;;22.50;36.66;99855.83;105020;1288;59306;-80
2024/02/13 10:44:38;;;;;;;;;;;;;;;22.48;36.52;99854.21;105321;1291;59067;-79
2024/02/13 10:47:07;;;;;;;;;;;;;;;22.46;36.50;99852.25;105230;1288;75130;-81
2024/02/13 10:49:43;;;;;;;;;;;;;;;22.43;36.49;99852.64;104751;1291;61254;-79
2024/02/13 10:52:10;;;;;;;;;;;;;;;22.40;36.52;99852.54;104772;1293;61137;-81
2024/02/13 10:54:37;;;;;;;;;;;;;;;22.37;36.54;99848.02;104948;1297;61406;-79
2024/02/13 10:57:03;;;;;;;;;;;;;;;22.35;36.39;99851.76;104692;1291;74604;-79
2024/02/13 10:59:30;;;;;;;;;;;;;;;22.34;36.50;99849.55;104664;1294;62273;-81
2024/02/13 11:01:58;;;;;;;;;;;;;;;22.32;36.44;99847.73;104758;1291;61153;-80
2024/02/13 11:04:25;;;;;;;;;;;;;;;22.30;36.37;99848.33;104378;1296;72751;-80
2024/02/13 11:06:51;;;;;;;;;;;;;;;22.19;36.26;99847.15;104385;1296;74504;-79
2024/02/13 11:09:17;;;;;;;;;;;;;;;21.98;36.27;99845.23;104640;1295;59411;-81
2024/02/13 11:11:44;;;;;;;;;;;;;;;21.83;36.52;99849.08;104526;1295;60027;-81
2024/02/13 11:14:22;;;;;;;;;;;;;;;21.84;36.54;99849.16;104838;1296;60834;-81
2024/02/13 11:16:55;;;;;;;;;;;;;;;21.86;36.56;99847.73;104956;1295;74466;-81
2024/02/13 11:19:21;;;;;;;;;;;;;;;21.90;36.66;99848.10;104248;1298;62982;-80
2024/02/13 11:21:51;;;;;;;;;;;;;;;21.94;36.68;99845.95;104367;1291;61370;-80
2024/02/13 11:24:22;;;;;;;;;;;;;;;21.97;36.67;99853.74;105857;1291;73795;-81
2024/02/13 11:26:48;;;;;;;;;;;;;;;21.99;36.69;99849.98;105188;1291;74494;-80
2024/02/13 11:29:20;;;;;;;;;;;;;;;21.98;36.67;99852.03;104534;1291;61341;-80
2024/02/13 11:31:56;;;;;;;;;;;;;;;21.98;36.58;99846.14;104499;1293;61318;-80
2024/02/13 11:34:36;;;;;;;;;;;;;;;21.99;36.54;99848.60;104252;1291;72873;-79
2024/02/13 11:37:12;;;;;;;;;;;;;;;21.98;36.69;99843.80;104047;1291;74709;-80
2024/02/13 11:39:38;;;;;;;;;;;;;;;21.99;36.66;99847.16;104086;1291;61046;-80
2024/02/13 11:42:05;;;;;;;;;;;;;;;21.98;36.58;99847.38;104259;1292;62397;-80
2024/02/13 11:44:33;;;;;;;;;;;;;;;21.98;36.55;99846.51;104206;1290;72583;-80
2024/02/13 11:46:59;;;;;;;;;;;;;;;21.95;36.60;99841.71;104304;1288;75487;-80
2024/02/13 11:49:25;;;;;;;;;;;;;;;21.94;36.67;99841.83;104372;1288;61377;-79
2024/02/13 11:51:51;;;;;;;;;;;;;;;21.93;36.62;99840.48;104539;1288;61372;-81
2024/02/13 11:54:18;;;;;;;;;;;;;;;21.92;36.68;99841.43;104539;1288;61330;-80
2024/02/13 11:56:44;;;;;;;;;;;;;;;21.91;36.71;99838.13;104556;1288;61382;-80
2024/02/13 11:59:10;;;;;;;;;;;;;;;21.92;36.93;99841.29;104779;1288;61324;-80
2024/02/13 12:01:42;;;;;;;;;;;;;;;21.95;37.18;99844.28;104830;1288;61310;-79
2024/02/13 12:04:11;;;;;;;;;;;;;;;21.94;37.11;99840.95;105326;1288;72660;-80
2024/02/13 12:06:38;;;;;;;;;;;;;;;21.87;37.05;99843.41;104964;1296;73096;-82
2024/02/13 12:09:07;;;;;;;;;;;;;;;21.78;37.00;99840.91;105152;1288;61166;-81
2024/02/13 12:11:33;;;;;;;;;;;;;;;21.76;37.22;99843.27;105323;1288;59961;-80
2024/02/13 12:14:05;;;;;;;;;;;;;;;21.75;37.16;99845.44;105071;1289;72250;-80
2024/02/13 12:16:32;;;;;;;;;;;;;;;21.77;37.27;99846.96;105093;1288;74530;-81
2024/02/13 12:18:58;;;;;;;;;;;;;;;21.78;37.22;99841.70;105151;1288;61156;-80
2024/02/13 12:21:25;;;;;;;;;;;;;;;21.78;37.27;99841.45;105191;1288;59563;-80
2024/02/13 12:23:50;;;;;;;;;;;;;;;21.78;37.31;99842.05;105091;1288;61440;-80
2024/02/13 12:26:16;;;;;;;;;;;;;;;21.77;37.38;99842.99;104948;1288;60625;-80
2024/02/13 12:28:43;;;;;;;;;;;;;;;21.76;37.34;99843.42;104981;1288;61149;-80
2024/02/13 12:31:08;;;;;;;;;;;;;;;21.76;37.48;99844.27;104684;1288;61342;-81
2024/02/13 12:33:36;;;;;;;;;;;;;;;21.76;37.34;99845.54;104816;1288;61285;-79
2024/02/13 12:36:02;;;;;;;;;;;;;;;21.77;37.58;99844.05;104810;1288;61460;-80